createdAt,value
2018-04-28T00:00:04.842Z,57.36
2018-04-28T00:02:32.340Z,57.48
2018-04-28T00:04:59.858Z,57.47
2018-04-28T00:07:27.402Z,57.48
2018-04-28T00:09:55.231Z,57.55
2018-04-28T00:12:22.838Z,57.57
2018-04-28T00:14:50.379Z,58.01
2018-04-28T00:17:18.574Z,57.92
2018-04-28T00:19:47.772Z,58.22
2018-04-28T00:25:13.379Z,58.08
2018-04-28T00:27:42.754Z,58.44
2018-04-28T00:30:11.885Z,58.47
2018-04-28T00:32:39.401Z,58.52
2018-04-28T00:35:07.744Z,58.52
2018-04-28T00:37:50.136Z,58.45
2018-04-28T00:40:19.233Z,58.60
2018-04-28T00:43:04.204Z,58.66
2018-04-28T00:45:37.561Z,58.78
2018-04-28T00:51:26.421Z,58.85
2018-04-28T00:53:53.944Z,58.88
2018-04-28T00:56:22.352Z,59.03
2018-04-28T00:58:51.487Z,59.30
2018-04-28T01:04:27.368Z,59.34
2018-04-28T01:06:54.900Z,59.40
2018-04-28T01:09:23.266Z,59.43
2018-04-28T01:11:50.805Z,59.48
2018-04-28T01:14:30.114Z,59.55
2018-04-28T01:16:57.680Z,59.73
2018-04-28T01:19:25.993Z,59.96
2018-04-28T01:21:53.528Z,60.05
2018-04-28T01:27:39.569Z,60.10
2018-04-28T01:33:41.967Z,60.46
2018-04-28T01:36:31.024Z,60.45
2018-04-28T01:39:01.554Z,61.00
2018-04-28T01:44:48.689Z,61.19
2018-04-28T01:47:21.045Z,61.21
2018-04-28T01:49:49.487Z,61.53
2018-04-28T01:52:17.661Z,61.66
2018-04-28T01:58:00.915Z,61.87
2018-04-28T02:03:49.306Z,62.07
2018-04-28T02:06:19.698Z,61.97
2018-04-28T02:08:49.916Z,62.13
2018-04-28T02:11:21.827Z,62.56
2018-04-28T02:14:01.134Z,62.70
2018-04-28T02:16:34.463Z,62.55
2018-04-28T02:19:05.878Z,62.08
2018-04-28T02:21:40.116Z,62.45
2018-04-28T02:24:15.295Z,62.21
2018-04-28T02:26:44.788Z,62.41
2018-04-28T02:29:22.459Z,62.70
2018-04-28T02:32:02.621Z,62.33
2018-04-28T02:34:30.388Z,62.52
2018-04-28T02:37:30.264Z,62.35
2018-04-28T02:40:03.549Z,62.24
2018-04-28T02:42:37.780Z,62.55
2018-04-28T02:45:16.149Z,62.70
2018-04-28T02:47:45.946Z,62.65
2018-04-28T02:50:18.233Z,62.28
2018-04-28T02:56:08.606Z,62.43
2018-04-28T02:58:46.885Z,62.91
2018-04-28T03:04:21.993Z,62.91
2018-04-28T03:06:53.248Z,63.05
2018-04-28T03:09:22.343Z,62.97
2018-04-28T03:12:04.779Z,63.19
2018-04-28T03:14:33.120Z,63.41
2018-04-28T03:17:05.075Z,63.53
2018-04-28T03:19:54.227Z,63.76
2018-04-28T03:22:23.406Z,63.96
2018-04-28T03:24:55.364Z,63.94
2018-04-28T03:27:23.827Z,63.70
2018-04-28T03:29:52.142Z,63.56
2018-04-28T03:32:19.754Z,63.76
2018-04-28T03:34:47.288Z,64.02
2018-04-28T03:37:26.005Z,64.12
2018-04-28T03:39:56.323Z,64.22
2018-04-28T03:42:27.491Z,64.28
2018-04-28T03:45:03.666Z,64.45
2018-04-28T03:47:34.638Z,64.55
2018-04-28T03:50:02.138Z,64.59
2018-04-28T03:52:50.430Z,64.84
2018-04-28T03:55:27.855Z,64.66
2018-04-28T03:58:07.455Z,65.09
2018-04-28T04:00:47.094Z,65.04
2018-04-28T04:03:20.608Z,64.85
2018-04-28T04:09:01.182Z,65.15
2018-04-28T04:14:59.338Z,65.42
2018-04-28T04:20:49.578Z,65.24
2018-04-28T04:26:36.949Z,64.98
2018-04-28T04:29:18.891Z,65.05
2018-04-28T04:32:02.726Z,65.27
2018-04-28T04:37:30.256Z,65.12
2018-04-28T04:40:09.553Z,65.16
2018-04-28T04:42:43.826Z,64.94
2018-04-28T04:45:25.414Z,64.40
2018-04-28T04:51:24.941Z,64.55
2018-04-28T04:54:02.212Z,64.90
2018-04-28T04:56:41.550Z,64.97
2018-04-28T04:59:18.248Z,64.35
2018-04-28T05:02:17.178Z,64.33
2018-04-28T05:04:50.606Z,64.30
2018-04-28T05:10:20.040Z,64.36
2018-04-28T05:16:07.922Z,64.18
2018-04-28T05:18:39.172Z,64.31
2018-04-28T05:27:50.373Z,64.23
2018-04-28T05:33:30.843Z,62.84
2018-04-28T05:36:04.261Z,63.05
2018-04-28T05:38:37.777Z,61.82
2018-04-28T05:41:17.130Z,62.78
2018-04-28T05:46:46.526Z,62.24
2018-04-28T05:49:15.005Z,61.62
2018-04-28T05:52:01.122Z,61.12
2018-04-28T05:54:33.501Z,61.02
2018-04-28T06:00:11.771Z,60.53
2018-04-28T06:02:43.190Z,60.62
2018-04-28T06:05:23.027Z,60.27
2018-04-28T06:07:56.374Z,60.03
2018-04-28T06:10:24.871Z,60.42
2018-04-28T06:13:04.285Z,60.41
2018-04-28T06:15:38.337Z,60.61
2018-04-28T06:18:12.785Z,60.17
2018-04-28T06:20:41.229Z,60.41
2018-04-28T06:23:08.758Z,60.27
2018-04-28T06:25:36.592Z,60.38
2018-04-28T06:28:04.140Z,59.75
2018-04-28T06:30:31.670Z,59.23
2018-04-28T06:32:59.190Z,58.90
2018-04-28T06:35:26.709Z,59.35
2018-04-28T06:37:54.219Z,59.54
2018-04-28T06:40:22.059Z,59.58
2018-04-28T06:42:49.601Z,59.39
2018-04-28T06:45:17.101Z,59.16
2018-04-28T06:47:44.961Z,59.16
2018-04-28T06:50:12.501Z,59.22
2018-04-28T06:52:40.012Z,58.36
2018-04-28T06:55:07.535Z,58.17
2018-04-28T06:57:35.069Z,58.75
2018-04-28T07:00:02.850Z,58.81
2018-04-28T07:02:30.356Z,58.75
2018-04-28T07:04:57.885Z,58.33
2018-04-28T07:07:25.547Z,58.01
2018-04-28T07:09:53.178Z,56.94
2018-04-28T07:12:20.737Z,56.35
2018-04-28T07:14:48.259Z,55.97
2018-04-28T07:17:16.090Z,54.71
2018-04-28T07:19:43.654Z,53.94
2018-04-28T07:22:11.239Z,53.15
2018-04-28T07:24:38.766Z,52.26
2018-04-28T07:27:06.316Z,51.56
2018-04-28T07:29:33.835Z,50.54
2018-04-28T07:32:01.387Z,50.77
2018-04-28T07:34:28.974Z,50.87
2018-04-28T07:36:56.509Z,51.10
2018-04-28T07:39:24.304Z,51.37
2018-04-28T07:41:51.851Z,50.15
2018-04-28T07:44:19.374Z,50.16
2018-04-28T07:46:46.923Z,50.32
2018-04-28T07:49:14.674Z,50.19
2018-04-28T07:51:42.345Z,50.54
2018-04-28T07:54:09.907Z,50.19
2018-04-28T07:56:37.460Z,50.67
2018-04-28T07:59:04.983Z,49.96
2018-04-28T08:01:32.512Z,48.98
2018-04-28T08:04:00.125Z,48.98
2018-04-28T08:06:27.921Z,48.40
2018-04-28T08:08:56.310Z,48.41
2018-04-28T08:11:24.112Z,46.79
2018-04-28T08:13:51.705Z,46.56
2018-04-28T08:16:19.379Z,46.76
2018-04-28T08:18:46.935Z,45.35
2018-04-28T08:21:14.710Z,44.62
2018-04-28T08:23:42.287Z,43.49
2018-04-28T08:26:09.926Z,42.86
2018-04-28T08:28:37.531Z,42.55
2018-04-28T08:31:05.071Z,43.17
2018-04-28T08:33:32.612Z,43.32
2018-04-28T08:36:00.113Z,41.99
2018-04-28T08:38:27.636Z,41.78
2018-04-28T08:40:55.191Z,40.68
2018-04-28T08:43:22.727Z,39.43
2018-04-28T08:45:50.284Z,40.31
2018-04-28T08:48:17.889Z,39.27
2018-04-28T08:50:45.457Z,39.33
2018-04-28T08:53:12.981Z,38.24
2018-04-28T08:55:40.553Z,36.82
2018-04-28T08:58:08.090Z,37.35
2018-04-28T09:00:35.646Z,36.17
2018-04-28T09:03:03.201Z,33.65
2018-04-28T09:05:30.707Z,33.16
2018-04-28T09:07:58.229Z,33.81
2018-04-28T09:10:25.850Z,31.75
2018-04-28T09:12:53.383Z,32.04
2018-04-28T09:15:20.972Z,32.80
2018-04-28T09:17:48.579Z,33.17
2018-04-28T09:20:16.128Z,34.08
2018-04-28T09:22:43.767Z,33.51
2018-04-28T09:25:11.420Z,33.08
2018-04-28T09:27:39.021Z,33.87
2018-04-28T09:30:06.614Z,33.17
2018-04-28T09:32:34.193Z,33.09
2018-04-28T09:35:01.750Z,33.48
2018-04-28T09:37:29.368Z,34.09
2018-04-28T09:39:57.018Z,33.92
2018-04-28T09:42:24.595Z,33.71
2018-04-28T09:44:52.127Z,33.26
2018-04-28T09:47:19.737Z,32.04
2018-04-28T09:49:47.281Z,32.51
2018-04-28T09:52:14.834Z,33.45
2018-04-28T09:54:42.398Z,33.10
2018-04-28T09:57:09.958Z,33.09
2018-04-28T09:59:37.599Z,33.52
2018-04-28T10:02:10.851Z,33.74
2018-04-28T10:04:38.675Z,34.12
2018-04-28T10:07:06.306Z,34.22
2018-04-28T10:09:34.148Z,34.01
2018-04-28T10:12:01.793Z,35.20
2018-04-28T10:14:29.349Z,34.48
2018-04-28T10:16:56.957Z,33.02
2018-04-28T10:19:24.947Z,33.15
2018-04-28T10:21:52.551Z,32.17
2018-04-28T10:24:20.239Z,32.46
2018-04-28T10:26:48.486Z,33.03
2018-04-28T10:29:16.004Z,32.17
2018-04-28T10:31:43.663Z,31.52
2018-04-28T10:34:11.936Z,31.77
2018-04-28T10:36:39.512Z,31.93
2018-04-28T10:39:07.104Z,31.76
2018-04-28T10:41:34.760Z,32.25
2018-04-28T10:44:02.934Z,31.17
2018-04-28T10:46:30.597Z,31.35
2018-04-28T10:48:58.100Z,30.98
2018-04-28T10:51:25.653Z,28.85
2018-04-28T10:53:53.278Z,29.98
2018-04-28T10:56:20.811Z,29.40
2018-04-28T10:58:48.338Z,28.67
2018-04-28T11:01:15.846Z,29.18
2018-04-28T11:03:43.649Z,30.40
2018-04-28T11:06:11.168Z,30.50
2018-04-28T11:08:38.731Z,30.42
2018-04-28T11:11:06.241Z,30.33
2018-04-28T11:13:33.795Z,31.65
2018-04-28T11:16:01.368Z,31.46
2018-04-28T11:18:28.887Z,32.29
2018-04-28T11:20:56.462Z,32.45
2018-04-28T11:23:24.345Z,32.04
2018-04-28T11:25:52.120Z,31.60
2018-04-28T11:28:19.979Z,31.34
2018-04-28T11:30:47.586Z,32.53
2018-04-28T11:33:15.117Z,33.85
2018-04-28T11:35:42.676Z,33.19
2018-04-28T11:38:10.305Z,32.16
2018-04-28T11:40:37.749Z,32.63
2018-04-28T11:43:05.546Z,32.75
2018-04-28T11:45:33.076Z,33.50
2018-04-28T11:48:00.595Z,32.26
2018-04-28T11:50:28.431Z,29.49
2018-04-28T11:52:55.990Z,29.86
2018-04-28T11:55:23.560Z,28.68
2018-04-28T11:57:51.148Z,28.12
2018-04-28T12:00:18.666Z,30.32
2018-04-28T12:02:46.542Z,29.45
2018-04-28T12:05:14.346Z,24.90
2018-04-28T12:07:41.837Z,21.31
2018-04-28T12:10:09.354Z,17.92
2018-04-28T12:12:36.915Z,20.63
2018-04-28T12:15:04.475Z,21.38
2018-04-28T12:17:32.033Z,22.18
2018-04-28T12:19:59.579Z,22.82
2018-04-28T12:22:27.081Z,21.67
2018-04-28T12:24:54.594Z,19.02
2018-04-28T12:27:22.197Z,17.95
2018-04-28T12:29:49.743Z,16.84
2018-04-28T12:32:17.300Z,15.55
2018-04-28T12:34:44.839Z,17.13
2018-04-28T12:37:12.362Z,15.89
2018-04-28T12:39:39.888Z,16.56
2018-04-28T12:42:07.424Z,15.71
2018-04-28T12:44:34.926Z,15.68
2018-04-28T12:47:02.456Z,14.86
2018-04-28T12:49:30.043Z,15.90
2018-04-28T12:51:57.684Z,15.07
2018-04-28T12:54:25.554Z,13.05
2018-04-28T12:56:53.189Z,13.93
2018-04-28T12:59:20.731Z,15.37
2018-04-28T13:01:48.250Z,15.36
2018-04-28T13:04:16.077Z,17.96
2018-04-28T13:06:43.586Z,19.81
2018-04-28T13:09:11.101Z,19.31
2018-04-28T13:11:38.621Z,18.26
2018-04-28T13:14:06.167Z,16.23
2018-04-28T13:16:33.692Z,16.29
2018-04-28T13:19:01.263Z,15.16
2018-04-28T13:21:28.800Z,14.87
2018-04-28T13:23:56.321Z,13.32
2018-04-28T13:26:23.840Z,12.63
2018-04-28T13:28:51.367Z,12.75
2018-04-28T13:31:18.884Z,14.22
2018-04-28T13:33:46.405Z,14.67
2018-04-28T13:36:14.255Z,15.02
2018-04-28T13:38:41.770Z,16.18
2018-04-28T13:41:09.328Z,18.04
2018-04-28T13:43:36.859Z,17.97
2018-04-28T13:46:04.361Z,18.64
2018-04-28T13:48:31.897Z,19.11
2018-04-28T13:50:59.427Z,19.38
2018-04-28T13:53:26.973Z,18.43
2018-04-28T13:55:54.564Z,18.51
2018-04-28T13:58:22.050Z,20.03
2018-04-28T14:00:49.869Z,20.28
2018-04-28T14:03:17.401Z,20.67
2018-04-28T14:05:45.189Z,21.81
2018-04-28T14:08:12.959Z,22.61
2018-04-28T14:10:40.742Z,22.91
2018-04-28T14:13:08.258Z,22.52
2018-04-28T14:15:35.756Z,23.01
2018-04-28T14:18:03.304Z,23.35
2018-04-28T14:20:30.828Z,23.17
2018-04-28T14:22:58.343Z,22.37
2018-04-28T14:25:25.919Z,20.46
2018-04-28T14:27:53.436Z,19.91
2018-04-28T14:30:20.948Z,19.97
2018-04-28T14:32:48.485Z,20.79
2018-04-28T14:35:15.996Z,22.17
2018-04-28T14:37:43.521Z,22.38
2018-04-28T14:40:11.352Z,22.36
2018-04-28T14:42:41.495Z,22.26
2018-04-28T14:45:09.010Z,22.42
2018-04-28T14:47:36.586Z,22.31
2018-04-28T14:50:04.180Z,22.02
2018-04-28T14:52:31.696Z,21.16
2018-04-28T14:54:59.253Z,22.53
2018-04-28T14:57:26.760Z,23.46
2018-04-28T14:59:54.283Z,23.71
2018-04-28T15:02:22.201Z,23.52
2018-04-28T15:04:50.037Z,23.16
2018-04-28T15:07:17.549Z,23.29
2018-04-28T15:09:45.184Z,24.11
2018-04-28T15:12:12.634Z,24.32
2018-04-28T15:14:40.165Z,24.81
2018-04-28T15:17:07.741Z,25.36
2018-04-28T15:19:35.258Z,25.56
2018-04-28T15:22:02.775Z,25.36
2018-04-28T15:24:30.308Z,24.93
2018-04-28T15:26:57.893Z,25.26
2018-04-28T15:29:25.636Z,25.05
2018-04-28T15:31:53.252Z,25.00
2018-04-28T15:34:20.760Z,24.74
2018-04-28T15:36:48.285Z,24.74
2018-04-28T15:39:15.894Z,24.85
2018-04-28T15:41:43.657Z,24.99
2018-04-28T15:44:11.169Z,25.00
2018-04-28T15:46:38.690Z,24.94
2018-04-28T15:49:06.230Z,25.06
2018-04-28T15:51:33.749Z,25.41
2018-04-28T15:54:01.276Z,25.39
2018-04-28T15:56:28.888Z,25.15
2018-04-28T15:58:56.406Z,25.30
2018-04-28T16:01:23.937Z,25.14
2018-04-28T16:03:51.482Z,25.32
2018-04-28T16:06:18.988Z,25.36
2018-04-28T16:08:46.535Z,25.35
2018-04-28T16:11:14.382Z,24.65
2018-04-28T16:13:41.915Z,22.28
2018-04-28T16:16:09.707Z,22.12
2018-04-28T16:18:37.466Z,21.21
2018-04-28T16:21:05.238Z,20.96
2018-04-28T16:23:32.785Z,20.33
2018-04-28T16:26:00.313Z,19.82
2018-04-28T16:28:27.827Z,19.16
2018-04-28T16:30:55.433Z,19.32
2018-04-28T16:33:23.036Z,18.92
2018-04-28T16:35:50.491Z,18.84
2018-04-28T16:38:18.358Z,18.64
2018-04-28T16:40:45.853Z,19.00
2018-04-28T16:43:13.352Z,19.07
2018-04-28T16:45:40.885Z,19.26
2018-04-28T16:48:08.404Z,19.93
2018-04-28T16:50:35.924Z,19.59
2018-04-28T16:53:03.946Z,19.39
2018-04-28T16:55:31.444Z,19.59
2018-04-28T16:57:59.067Z,19.75
2018-04-28T17:00:27.029Z,19.94
2018-04-28T17:02:54.522Z,19.94
2018-04-28T17:05:22.057Z,19.74
2018-04-28T17:07:49.606Z,19.93
2018-04-28T17:10:17.177Z,20.00
2018-04-28T17:12:44.678Z,19.80
2018-04-28T17:15:12.194Z,20.13
2018-04-28T17:17:51.421Z,20.54
2018-04-28T17:20:19.417Z,20.61
2018-04-28T17:22:46.925Z,20.33
2018-04-28T17:25:14.454Z,20.72
2018-04-28T17:27:42.275Z,20.97
2018-04-28T17:30:09.773Z,20.99
2018-04-28T17:32:37.276Z,20.99
2018-04-28T17:35:04.812Z,21.38
2018-04-28T17:37:33.339Z,21.33
2018-04-28T17:40:00.841Z,21.87
2018-04-28T17:42:28.454Z,21.76
2018-04-28T17:44:55.993Z,21.63
2018-04-28T17:47:23.496Z,21.83
2018-04-28T17:49:51.249Z,22.08
2018-04-28T17:52:19.125Z,22.21
2018-04-28T17:54:46.620Z,22.36
2018-04-28T17:57:14.494Z,22.59
2018-04-28T17:59:42.011Z,22.88
2018-04-28T18:02:09.581Z,23.09
2018-04-28T18:04:37.121Z,23.24
2018-04-28T18:07:04.617Z,23.51
2018-04-28T18:09:32.121Z,23.55
2018-04-28T18:11:59.727Z,23.80
2018-04-28T18:14:27.227Z,24.15
2018-04-28T18:16:54.761Z,24.37
2018-04-28T18:19:22.284Z,24.29
2018-04-28T18:21:49.799Z,24.38
2018-04-28T18:24:17.407Z,24.57
2018-04-28T18:26:44.993Z,24.83
2018-04-28T18:29:12.489Z,25.01
2018-04-28T18:31:40.286Z,24.91
2018-04-28T18:34:07.856Z,24.97
2018-04-28T18:36:35.448Z,25.12
2018-04-28T18:39:03.008Z,25.44
2018-04-28T18:41:30.569Z,25.86
2018-04-28T18:43:58.168Z,26.29
2018-04-28T18:46:25.730Z,26.41
2018-04-28T18:48:53.620Z,26.72
2018-04-28T18:51:21.128Z,27.01
2018-04-28T18:53:48.650Z,27.19
2018-04-28T18:56:16.181Z,27.63
2018-04-28T18:58:43.727Z,27.66
2018-04-28T19:01:11.312Z,27.88
2018-04-28T19:03:38.974Z,28.43
2018-04-28T19:06:06.576Z,28.77
2018-04-28T19:08:34.122Z,29.27
2018-04-28T19:11:01.673Z,29.81
2018-04-28T19:13:29.261Z,28.29
2018-04-28T19:15:57.220Z,28.55
2018-04-28T19:18:24.815Z,28.60
2018-04-28T19:20:52.491Z,28.61
2018-04-28T19:23:19.999Z,28.98
2018-04-28T19:25:47.560Z,29.71
2018-04-28T19:28:15.137Z,30.34
2018-04-28T19:30:42.651Z,30.85
2018-04-28T19:33:10.192Z,30.78
2018-04-28T19:35:37.702Z,31.08
2018-04-28T19:38:05.243Z,31.46
2018-04-28T19:40:32.809Z,32.55
2018-04-28T19:43:00.592Z,32.81
2018-04-28T19:45:28.161Z,33.80
2018-04-28T19:47:55.742Z,33.78
2018-04-28T19:50:24.399Z,34.30
2018-04-28T19:52:51.971Z,34.38
2018-04-28T19:55:19.577Z,34.44
2018-04-28T19:57:47.163Z,34.70
2018-04-28T20:00:14.703Z,35.24
2018-04-28T20:02:42.257Z,35.29
2018-04-28T20:05:10.385Z,35.89
2018-04-28T20:07:38.034Z,36.08
2018-04-28T20:10:05.660Z,36.40
2018-04-28T20:12:33.194Z,36.94
2018-04-28T20:15:01.004Z,37.31
2018-04-28T20:17:32.376Z,37.46
2018-04-28T20:19:59.914Z,37.92
2018-04-28T20:22:39.199Z,38.33
2018-04-28T20:25:18.723Z,38.46
2018-04-28T20:27:46.281Z,38.54
2018-04-28T20:30:14.278Z,38.75
2018-04-28T20:32:41.808Z,39.04
2018-04-28T20:35:09.393Z,39.33
2018-04-28T20:37:37.017Z,39.74
2018-04-28T20:40:04.581Z,40.03
2018-04-28T20:42:32.383Z,40.61
2018-04-28T20:44:59.962Z,41.10
2018-04-28T20:47:27.639Z,41.86
2018-04-28T20:49:55.274Z,42.51
2018-04-28T20:52:23.094Z,43.01
2018-04-28T20:54:50.771Z,43.15
2018-04-28T20:57:18.369Z,43.89
2018-04-28T20:59:46.208Z,44.52
2018-04-28T21:02:13.742Z,44.89
2018-04-28T21:04:41.335Z,46.02
2018-04-28T21:07:08.866Z,47.20
2018-04-28T21:09:36.559Z,49.90
2018-04-28T21:12:04.177Z,50.54
2018-04-28T21:14:31.739Z,50.92
2018-04-28T21:16:59.348Z,51.10
2018-04-28T21:19:26.911Z,51.90
2018-04-28T21:21:54.460Z,52.89
2018-04-28T21:24:22.056Z,53.13
2018-04-28T21:26:49.626Z,53.81
2018-04-28T21:29:17.673Z,53.76
2018-04-28T21:31:45.176Z,53.56
2018-04-28T21:34:12.966Z,55.18
2018-04-28T21:36:40.555Z,54.55
2018-04-28T21:39:08.080Z,55.57
2018-04-28T21:41:35.622Z,55.30
2018-04-28T21:44:03.146Z,54.35
2018-04-28T21:46:30.699Z,54.54
2018-04-28T21:48:58.246Z,54.37
2018-04-28T21:51:25.768Z,53.97
2018-04-28T21:53:53.280Z,54.08
2018-04-28T21:56:20.834Z,53.90
2018-04-28T21:58:48.378Z,54.23
2018-04-28T22:01:15.881Z,54.42
2018-04-28T22:03:43.410Z,54.54
2018-04-28T22:06:11.163Z,53.55
2018-04-28T22:08:38.734Z,53.66
2018-04-28T22:11:06.267Z,53.81
2018-04-28T22:13:33.793Z,53.65
2018-04-28T22:16:02.013Z,53.55
2018-04-28T22:18:29.576Z,54.10
2018-04-28T22:20:57.095Z,53.76
2018-04-28T22:23:24.618Z,52.20
2018-04-28T22:25:52.455Z,52.11
2018-04-28T22:28:19.965Z,53.22
2018-04-28T22:30:47.507Z,52.87
2018-04-28T22:33:15.337Z,52.61
2018-04-28T22:35:43.599Z,52.16
2018-04-28T22:38:11.143Z,52.16
2018-04-28T22:40:38.705Z,51.46
2018-04-28T22:43:06.230Z,51.46
2018-04-28T22:45:33.737Z,51.43
2018-04-28T22:48:01.283Z,51.59
2018-04-28T22:50:29.155Z,51.35
2018-04-28T22:52:56.663Z,51.49
2018-04-28T22:55:24.202Z,51.75
2018-04-28T22:57:51.707Z,51.92
2018-04-28T23:00:22.898Z,52.24
2018-04-28T23:02:50.446Z,52.20
2018-04-28T23:05:18.266Z,51.68
2018-04-28T23:07:45.784Z,51.69
2018-04-28T23:10:13.317Z,52.40
2018-04-28T23:12:40.845Z,52.52
2018-04-28T23:15:08.389Z,52.07
2018-04-28T23:17:35.904Z,53.00
2018-04-28T23:20:03.521Z,51.88
2018-04-28T23:22:31.361Z,51.60
2018-04-28T23:24:58.918Z,50.85
2018-04-28T23:27:26.486Z,51.02
2018-04-28T23:29:54.008Z,51.69
2018-04-28T23:32:21.580Z,52.12
2018-04-28T23:34:49.129Z,52.02
2018-04-28T23:37:16.651Z,51.70
2018-04-28T23:39:44.197Z,51.61
2018-04-28T23:42:11.707Z,51.48
2018-04-28T23:44:39.209Z,51.74
2018-04-28T23:47:06.736Z,51.38
2018-04-28T23:49:34.259Z,51.28
2018-04-28T23:52:01.767Z,51.57
2018-04-28T23:54:29.301Z,51.59
2018-04-28T23:56:56.821Z,51.63
2018-04-28T23:59:24.330Z,51.84
